Time;durP1;ratioP1;P1;durP2;ratioP2;P2;SDS_P1;SDS_P2;PMS_P1;PMS_P2;Temp;Humidity;BMP_temperature;BMP_pressure;BME280_temperature;BME280_humidity;BME280_pressure;Samples;Min_cycle;Max_cycle;Signal;HPM_P1;HPM_P2
2023/07/21 00:01:24;;;;;;;2.10;2.00;;;23.20;74.70;;;23.66;nan;100119.72;4994501;28;20626;-66
2023/07/21 00:03:55;;;;;;;1.97;1.87;;;23.10;74.90;;;23.64;nan;100114.56;4991631;28;20641;-65
2023/07/21 00:06:24;;;;;;;1.43;1.43;;;23.20;75.00;;;23.65;nan;100118.88;4996596;28;20634;-65
2023/07/21 00:08:53;;;;;;;1.70;1.60;;;23.20;75.10;;;23.65;nan;100110.06;5012627;28;20673;-64
2023/07/21 00:11:21;;;;;;;1.90;1.80;;;23.10;75.20;;;23.70;nan;100108.41;5011942;28;20626;-66
2023/07/21 00:13:48;;;;;;;4.30;2.40;;;23.10;75.40;;;23.68;nan;100109.66;4993744;28;20642;-66
2023/07/21 00:16:15;;;;;;;1.90;1.80;;;23.10;75.60;;;23.66;nan;100112.50;4994765;28;20630;-65
2023/07/21 00:18:42;;;;;;;2.03;1.83;;;23.10;75.70;;;23.63;nan;100106.78;4991388;28;20668;-65
2023/07/21 00:21:09;;;;;;;1.70;1.70;;;23.10;76.00;;;23.61;nan;100099.03;4999526;28;20657;-67
2023/07/21 00:23:36;;;;;;;2.47;2.30;;;23.10;76.30;;;23.59;nan;100105.56;5010367;28;20618;-66
2023/07/21 00:26:03;;;;;;;1.73;1.63;;;23.00;76.30;;;23.56;nan;100101.47;5012875;28;20620;-67
2023/07/21 00:28:31;;;;;;;1.80;1.70;;;23.00;76.20;;;23.55;nan;100097.16;4991277;28;20683;-66
2023/07/21 00:30:58;;;;;;;2.00;1.80;;;23.00;76.40;;;23.55;nan;100096.38;4991554;28;20602;-67
2023/07/21 00:33:25;;;;;;;2.50;2.37;;;23.00;76.70;;;23.52;nan;100094.09;4992174;28;20633;-69
2023/07/21 00:35:52;;;;;;;1.50;1.40;;;23.00;76.80;;;23.51;nan;100097.81;4974724;28;20621;-67
2023/07/21 00:38:21;;;;;;;1.90;1.80;;;23.00;77.00;;;23.48;nan;100101.69;4988874;28;20666;-67
2023/07/21 00:40:48;;;;;;;1.90;1.77;;;22.90;77.00;;;23.46;nan;100097.59;4991679;28;21011;-66
2023/07/21 00:43:17;;;;;;;2.10;2.00;;;22.90;77.00;;;23.43;nan;100093.50;5000374;28;21190;-67
2023/07/21 00:45:48;;;;;;;2.03;1.93;;;22.90;77.00;;;23.38;nan;100097.81;4994363;28;20614;-67
2023/07/21 00:48:17;;;;;;;2.17;2.03;;;22.90;77.00;;;23.30;nan;100095.34;4991771;28;20661;-68
2023/07/21 00:50:50;;;;;;;3.03;2.17;;;22.80;77.10;;;23.23;nan;100095.31;4974820;28;20662;-68
2023/07/21 00:53:19;;;;;;;2.43;2.27;;;22.80;77.20;;;23.19;nan;100086.13;4975097;28;21016;-66
2023/07/21 00:55:48;;;;;;;1.70;1.60;;;22.80;77.40;;;23.15;nan;100096.34;4991588;28;20618;-68
2023/07/21 00:58:18;;;;;;;2.20;2.07;;;22.70;77.60;;;23.12;nan;100093.28;4990773;28;20650;-68
2023/07/21 01:00:46;;;;;;;1.87;1.77;;;22.70;77.80;;;23.10;nan;100088.16;4989904;28;21208;-68
2023/07/21 01:03:15;;;;;;;2.07;1.90;;;22.70;78.10;;;23.12;nan;100087.94;4971999;28;20638;-68
2023/07/21 01:05:49;;;;;;;1.93;1.83;;;22.70;78.40;;;23.06;nan;100081.59;4990258;28;20639;-67
2023/07/21 01:08:17;;;;;;;3.63;2.30;;;22.60;78.50;;;23.04;nan;100077.50;4988300;28;21114;-68
2023/07/21 01:10:45;;;;;;;1.80;1.70;;;22.60;78.70;;;23.03;nan;100079.34;4991696;28;20677;-67
2023/07/21 01:13:12;;;;;;;1.90;1.80;;;22.60;79.00;;;23.04;nan;100074.84;4991590;28;20625;-66
2023/07/21 01:15:48;;;;;;;4.30;1.60;;;22.60;79.20;;;23.03;nan;100068.72;4972702;28;21237;-67
2023/07/21 01:18:19;;;;;;;1.90;1.80;;;22.50;79.40;;;23.05;nan;100073.81;4981001;28;20666;-66
2023/07/21 01:20:48;;;;;;;2.33;2.13;;;22.50;79.40;;;23.04;nan;100065.00;4990321;28;20642;-69
2023/07/21 01:23:54;;;;;;;2.00;1.90;;;22.60;79.60;;;23.03;nan;100067.88;4988172;28;20646;-68
2023/07/21 01:26:22;;;;;;;2.00;1.90;;;22.60;79.60;;;23.01;nan;100065.44;4983666;28;21178;-67
2023/07/21 01:28:49;;;;;;;1.57;1.50;;;22.50;79.70;;;23.01;nan;100059.28;4982163;28;20657;-67
2023/07/21 01:31:19;;;;;;;1.90;1.80;;;22.60;79.90;;;22.98;nan;100060.50;5010147;28;20667;-67
2023/07/21 01:33:50;;;;;;;2.33;2.17;;;22.60;79.90;;;22.95;nan;100063.59;4973507;28;20646;-69
2023/07/21 01:36:18;;;;;;;1.70;1.60;;;22.50;79.90;;;22.92;nan;100052.50;4991458;28;20637;-68
2023/07/21 01:38:45;;;;;;;1.80;1.70;;;22.40;80.00;;;22.89;nan;100059.06;4969649;28;20659;-67
2023/07/21 01:41:13;;;;;;;2.00;1.90;;;22.50;80.20;;;22.86;nan;100059.47;4988917;28;20638;-68
2023/07/21 01:43:40;;;;;;;2.60;2.20;;;22.40;80.10;;;22.82;nan;100060.09;4981395;28;20628;-67
2023/07/21 01:46:10;;;;;;;1.87;1.77;;;22.40;80.40;;;22.81;nan;100053.94;4990659;28;20622;-67
2023/07/21 01:48:38;;;;;;;2.00;1.90;;;22.30;80.50;;;22.77;nan;100052.72;4994327;28;21132;-68
2023/07/21 01:51:06;;;;;;;1.90;1.80;;;22.30;80.70;;;22.73;nan;100053.31;4988791;28;21209;-67
2023/07/21 01:53:36;;;;;;;1.80;1.70;;;22.30;80.70;;;22.67;nan;100052.28;4990302;28;20621;-69
2023/07/21 01:56:09;;;;;;;1.83;1.73;;;22.20;80.80;;;22.63;nan;100045.75;4989079;28;20694;-68
2023/07/21 01:58:38;;;;;;;1.70;1.60;;;22.20;80.90;;;22.61;nan;100047.78;4972900;28;20689;-70
2023/07/21 02:01:06;;;;;;;1.97;1.87;;;22.20;81.10;;;22.53;nan;100053.25;4970798;28;20626;-69
2023/07/21 02:03:34;;;;;;;1.87;1.77;;;22.10;81.40;;;22.49;nan;100046.69;4978434;28;20639;-67
2023/07/21 02:06:15;;;;;;;1.73;1.63;;;22.10;81.60;;;22.46;nan;100049.75;4971369;28;21147;-67
2023/07/21 02:08:43;;;;;;;3.87;1.60;;;22.00;81.80;;;22.42;nan;100045.03;4992865;28;20689;-67
2023/07/21 02:11:10;;;;;;;1.87;1.77;;;22.00;82.00;;;22.38;nan;100056.06;4986125;28;20673;-67
2023/07/21 02:13:39;;;;;;;1.70;1.60;;;21.90;82.30;;;22.35;nan;100053.00;4987196;28;20634;-67
2023/07/21 02:16:06;;;;;;;1.80;1.70;;;21.90;82.40;;;22.30;nan;100053.59;4989195;28;20654;-67
2023/07/21 02:18:35;;;;;;;2.17;2.00;;;21.90;82.70;;;22.31;nan;100054.41;4977308;28;20657;-68
2023/07/21 02:21:03;;;;;;;1.77;1.63;;;21.90;82.90;;;22.29;nan;100051.16;4988657;28;20637;-67
2023/07/21 02:23:31;;;;;;;1.57;1.57;;;21.90;83.10;;;22.25;nan;100050.69;4989326;28;20645;-67
2023/07/21 02:25:59;;;;;;;2.70;2.00;;;21.80;83.20;;;22.22;nan;100043.16;4991148;28;20721;-67
2023/07/21 02:28:26;;;;;;;3.13;2.37;;;21.80;83.50;;;22.20;nan;100042.53;4983204;28;20666;-67
2023/07/21 02:31:04;;;;;;;2.00;1.90;;;21.80;83.40;;;22.17;nan;100042.91;4973158;28;20641;-67
2023/07/21 02:33:31;;;;;;;4.50;2.37;;;21.70;83.20;;;22.18;nan;100041.09;4988597;28;21229;-67
2023/07/21 02:36:00;;;;;;;2.23;2.03;;;21.80;83.00;;;22.09;nan;100042.25;5010742;28;20625;-68
2023/07/21 02:38:29;;;;;;;2.03;1.93;;;21.70;83.30;;;22.04;nan;100040.19;4996096;28;21041;-68
2023/07/21 02:41:03;;;;;;;2.70;2.50;;;21.60;83.40;;;22.01;nan;100031.81;4984690;28;20618;-71
2023/07/21 02:43:32;;;;;;;1.90;1.80;;;21.60;83.60;;;21.96;nan;100028.94;4988129;28;20704;-67
2023/07/21 02:45:59;;;;;;;2.03;1.93;;;21.60;83.70;;;21.97;nan;100027.91;4980667;28;21207;-67
2023/07/21 02:48:29;;;;;;;1.97;1.87;;;21.50;83.70;;;22.00;nan;100033.66;4988794;28;20732;-67
2023/07/21 02:50:56;;;;;;;2.10;2.00;;;21.60;83.90;;;22.03;nan;100032.44;4991577;28;20680;-68
2023/07/21 02:53:23;;;;;;;2.83;2.00;;;21.60;83.80;;;22.03;nan;100032.44;5003527;28;20629;-67
2023/07/21 02:55:50;;;;;;;1.97;1.80;;;21.60;83.80;;;22.05;nan;100038.38;4976782;28;21047;-67
2023/07/21 02:58:18;;;;;;;1.73;1.63;;;21.60;83.80;;;22.04;nan;100034.09;4993515;28;20684;-67
2023/07/21 03:00:45;;;;;;;11.40;2.23;;;21.60;83.90;;;22.05;nan;100035.72;4988131;28;20658;-67
2023/07/21 03:03:14;;;;;;;4.10;2.00;;;21.60;84.00;;;22.02;nan;100030.81;5002264;28;20626;-69
2023/07/21 03:05:42;;;;;;;1.70;1.60;;;21.60;84.20;;;21.98;nan;100021.56;5005092;28;20659;-70
2023/07/21 03:08:10;;;;;;;2.00;1.90;;;21.60;84.50;;;21.98;nan;100021.56;4998210;28;20644;-67
2023/07/21 03:10:37;;;;;;;2.63;2.43;;;21.60;84.70;;;21.98;nan;100018.91;4980378;28;21134;-66
2023/07/21 03:13:04;;;;;;;2.20;2.10;;;21.50;85.30;;;22.01;nan;100024.69;4993301;28;20637;-67
2023/07/21 03:15:32;;;;;;;2.30;2.20;;;21.50;85.90;;;22.04;nan;100024.25;4993462;28;20639;-67
2023/07/21 03:17:59;;;;;;;2.13;1.93;;;21.60;86.40;;;22.05;nan;100019.78;4977781;28;20650;-67
2023/07/21 03:20:26;;;;;;;2.13;2.03;;;21.60;87.80;;;22.05;nan;100035.72;4984875;28;20637;-69
2023/07/21 03:22:53;;;;;;;1.67;1.57;;;21.60;88.50;;;22.03;nan;100045.72;4991473;28;20642;-68
2023/07/21 03:25:20;;;;;;;1.87;1.77;;;21.60;89.90;;;21.98;nan;100054.28;4994188;28;20629;-67
2023/07/21 03:27:47;;;;;;;1.43;1.33;;;21.60;90.60;;;21.88;nan;100047.69;5000435;28;20610;-67
2023/07/21 03:30:14;;;;;;;2.17;2.00;;;21.50;90.80;;;21.73;nan;100041.66;4990697;28;21405;-67
2023/07/21 03:32:45;;;;;;;2.07;1.97;;;21.40;91.20;;;21.59;nan;100046.88;5001704;28;20637;-67
2023/07/21 03:35:12;;;;;;;2.17;2.03;;;21.20;91.30;;;21.57;nan;100053.44;4989319;28;21179;-69
2023/07/21 03:37:39;;;;;;;1.70;1.60;;;21.20;92.40;;;21.50;nan;100048.06;4990559;28;20672;-68
2023/07/21 03:40:07;;;;;;;1.90;1.80;;;21.10;92.90;;;21.40;nan;100042.25;4991532;28;20677;-67
2023/07/21 03:42:35;;;;;;;3.13;2.07;;;21.00;92.90;;;21.36;nan;100050.84;4976457;28;21315;-67
2023/07/21 03:45:06;;;;;;;2.40;2.20;;;21.00;93.00;;;21.31;nan;100051.41;4991809;28;20720;-67
2023/07/21 03:47:35;;;;;;;1.60;1.50;;;20.90;93.80;;;21.29;nan;100064.06;4983104;28;20629;-68
2023/07/21 03:50:03;;;;;;;1.90;1.80;;;20.90;94.20;;;21.28;nan;100064.22;4988093;28;20680;-67
2023/07/21 03:52:30;;;;;;;2.80;2.10;;;20.90;95.00;;;21.26;nan;100071.56;4991977;28;20654;-67
2023/07/21 03:54:57;;;;;;;4.40;2.10;;;20.90;95.00;;;21.20;nan;100072.34;4991795;28;20631;-71
2023/07/21 03:57:24;;;;;;;1.47;1.37;;;20.80;95.60;;;21.12;nan;100069.81;4991079;28;20641;-67
2023/07/21 03:59:52;;;;;;;1.77;1.70;;;20.80;96.10;;;21.05;nan;100080.38;4996728;28;20750;-68
2023/07/21 04:02:19;;;;;;;1.90;1.80;;;20.70;97.00;;;20.94;nan;100077.38;4992333;28;20634;-67
2023/07/21 04:04:48;;;;;;;1.53;1.43;;;20.60;97.20;;;20.92;nan;100076.75;4990058;28;20638;-67
2023/07/21 04:07:15;;;;;;;2.77;2.03;;;20.50;97.50;;;20.86;nan;100080.97;4992074;28;20985;-68
2023/07/21 04:09:42;;;;;;;1.77;1.43;;;20.50;97.50;;;20.82;nan;100075.25;4986741;28;20682;-66
2023/07/21 04:12:09;;;;;;;1.63;1.53;;;20.40;98.00;;;20.81;nan;100072.75;4992740;28;20645;-68
2023/07/21 04:14:36;;;;;;;2.30;2.13;;;20.40;98.10;;;20.76;nan;100075.19;5002686;28;21268;-71
2023/07/21 04:17:04;;;;;;;6.07;2.13;;;20.40;98.90;;;20.79;nan;100075.63;4983602;28;21011;-67
2023/07/21 04:19:31;;;;;;;2.17;2.07;;;20.40;99.40;;;20.83;nan;100066.25;5005557;28;20657;-68
2023/07/21 04:22:00;;;;;;;2.00;1.80;;;20.40;99.60;;;20.89;nan;100067.34;4994114;28;20642;-68
2023/07/21 04:24:27;;;;;;;1.87;1.77;;;20.50;99.90;;;20.92;nan;100066.97;4990261;28;20626;-66
2023/07/21 04:26:54;;;;;;;2.20;2.10;;;20.50;99.90;;;20.95;nan;100065.75;4983265;28;20679;-67
2023/07/21 04:29:21;;;;;;;2.43;2.23;;;20.50;99.90;;;20.98;nan;100076.81;4991384;28;21084;-67
2023/07/21 04:32:01;;;;;;;2.50;2.30;;;20.50;99.90;;;21.02;nan;100069.31;4991475;28;20624;-67
2023/07/21 04:34:30;;;;;;;1.77;1.70;;;20.60;99.90;;;21.06;nan;100071.38;4994334;28;20638;-67
2023/07/21 04:36:57;;;;;;;1.67;1.60;;;20.70;99.90;;;21.04;nan;100067.31;4990570;28;20614;-67
2023/07/21 04:39:24;;;;;;;1.67;1.57;;;20.60;99.90;;;21.03;nan;100068.31;4991940;28;20662;-68
2023/07/21 04:41:52;;;;;;;1.80;1.70;;;20.60;99.90;;;21.07;nan;100072.22;4987778;28;20649;-67
2023/07/21 04:44:20;;;;;;;1.80;1.70;;;20.60;99.90;;;21.09;nan;100063.06;4980535;28;20650;-67
2023/07/21 04:46:47;;;;;;;1.80;1.70;;;20.60;99.90;;;21.12;nan;100070.66;4989054;28;20665;-67
2023/07/21 04:49:14;;;;;;;5.60;1.87;;;20.70;99.70;;;21.20;nan;100069.69;4995232;28;20705;-68
2023/07/21 04:51:41;;;;;;;1.87;1.80;;;20.80;99.70;;;21.21;nan;100066.81;4992046;28;20674;-67
2023/07/21 04:54:08;;;;;;;2.03;1.93;;;20.80;99.90;;;21.25;nan;100065.44;4987287;28;20738;-69
2023/07/21 04:56:35;;;;;;;2.23;2.10;;;20.80;99.90;;;21.30;nan;100059.53;4982077;28;20614;-67
2023/07/21 04:59:05;;;;;;;2.30;1.80;;;20.90;99.90;;;21.33;nan;100067.13;4988562;28;21262;-69
2023/07/21 05:01:32;;;;;;;1.40;1.40;;;20.90;99.90;;;21.35;nan;100071.25;4991287;28;21236;-69
2023/07/21 05:03:59;;;;;;;1.90;1.80;;;21.00;99.90;;;21.37;nan;100069.22;4993586;28;20619;-67
2023/07/21 05:06:26;;;;;;;4.00;2.13;;;21.00;99.90;;;21.36;nan;100072.88;4995337;28;20957;-69
2023/07/21 05:08:53;;;;;;;2.50;2.30;;;21.00;99.90;;;21.34;nan;100066.94;4980705;28;20674;-67
2023/07/21 05:11:21;;;;;;;1.97;1.87;;;20.90;99.90;;;21.36;nan;100062.25;4981858;28;20654;-69
2023/07/21 05:13:48;;;;;;;2.17;2.03;;;21.00;99.90;;;21.38;nan;100054.13;4992335;28;20646;-66
2023/07/21 05:16:15;;;;;;;2.90;2.20;;;21.00;99.90;;;21.40;nan;100052.88;4971122;28;20761;-67
2023/07/21 05:18:42;;;;;;;2.33;2.13;;;21.00;99.90;;;21.40;nan;100044.94;4978078;28;20658;-67
2023/07/21 05:21:09;;;;;;;2.53;2.33;;;21.00;99.90;;;21.46;nan;100040.69;4996393;28;20645;-67
2023/07/21 05:23:36;;;;;;;2.80;2.60;;;21.00;99.90;;;21.51;nan;100044.38;4994240;28;20646;-65
2023/07/21 05:26:03;;;;;;;2.80;2.43;;;21.10;99.90;;;21.61;nan;100033.44;4997271;28;20637;-70
2023/07/21 05:28:30;;;;;;;3.20;1.93;;;21.20;99.90;;;21.72;nan;100040.84;4992148;28;20662;-68
2023/07/21 05:30:57;;;;;;;3.47;2.30;;;21.30;99.90;;;21.80;nan;100038.03;4994250;28;20666;-69
2023/07/21 05:33:24;;;;;;;2.17;2.07;;;21.40;99.90;;;21.93;nan;100042.63;4984435;28;20646;-67
2023/07/21 05:35:51;;;;;;;2.13;1.97;;;21.50;99.90;;;22.00;nan;100038.16;4983350;28;20617;-70
2023/07/21 05:38:18;;;;;;;2.23;2.07;;;21.50;99.90;;;22.05;nan;100035.72;4996400;28;20670;-68
2023/07/21 05:40:57;;;;;;;2.13;2.03;;;21.60;99.90;;;22.05;nan;100033.06;4992565;28;20626;-69
2023/07/21 05:43:24;;;;;;;2.53;2.20;;;21.60;99.90;;;22.04;nan;100037.53;4986963;28;21003;-67
2023/07/21 05:45:51;;;;;;;2.40;2.30;;;21.60;99.70;;;22.08;nan;100040.66;4992185;28;21202;-68
2023/07/21 05:48:18;;;;;;;2.17;2.07;;;21.60;99.70;;;22.13;nan;100051.47;4991668;28;20673;-67
2023/07/21 05:50:45;;;;;;;3.07;2.20;;;21.70;99.30;;;22.15;nan;100044.13;4975170;28;20724;-68
2023/07/21 05:53:14;;;;;;;2.47;2.27;;;21.70;98.90;;;22.19;nan;100040.88;4997084;28;20729;-68
2023/07/21 05:55:42;;;;;;;4.37;2.57;;;21.80;98.70;;;22.24;nan;100045.59;4995822;28;21508;-67
2023/07/21 05:58:09;;;;;;;2.63;2.43;;;21.80;98.50;;;22.30;nan;100050.09;4994915;28;20830;-69
2023/07/21 06:00:38;;;;;;;2.97;2.77;;;21.90;98.30;;;22.32;nan;100040.94;4994752;28;20638;-67
2023/07/21 06:03:06;;;;;;;2.57;2.37;;;21.90;98.20;;;22.33;nan;100047.06;4986759;28;20651;-69
2023/07/21 06:05:36;;;;;;;3.63;2.57;;;21.90;97.90;;;22.38;nan;100041.97;4998838;28;20678;-68
2023/07/21 06:08:06;;;;;;;4.20;3.00;;;21.90;97.90;;;22.47;nan;100054.03;4999421;28;20622;-68
2023/07/21 06:10:34;;;;;;;2.63;2.43;;;22.00;98.00;;;22.59;nan;100041.84;4998566;28;20677;-71
2023/07/21 06:13:01;;;;;;;2.87;2.67;;;22.10;97.90;;;22.67;nan;100046.16;5001135;28;20638;-67
2023/07/21 06:15:28;;;;;;;2.77;2.57;;;22.20;97.70;;;22.72;nan;100039.19;5004496;28;20697;-70
2023/07/21 06:17:55;;;;;;;2.83;2.63;;;22.30;97.50;;;22.84;nan;100037.59;5006296;28;20641;-67
2023/07/21 06:20:23;;;;;;;1.97;1.87;;;22.40;97.30;;;22.93;nan;100046.19;4997817;28;20634;-69
2023/07/21 06:22:52;;;;;;;3.17;2.93;;;22.40;97.00;;;22.93;nan;100036.38;4999283;28;20638;-68
2023/07/21 06:25:19;;;;;;;3.73;3.30;;;22.50;97.00;;;23.00;nan;100039.00;4997341;28;21019;-70
2023/07/21 06:27:50;;;;;;;4.30;3.13;;;22.50;96.90;;;23.04;nan;100041.06;5000499;28;20709;-68
2023/07/21 06:30:17;;;;;;;2.67;2.47;;;22.60;96.90;;;23.12;nan;100048.84;5004903;28;20629;-68
2023/07/21 06:32:44;;;;;;;3.30;3.00;;;22.70;96.90;;;23.17;nan;100049.03;4996686;28;20692;-69
2023/07/21 06:35:11;;;;;;;2.80;2.60;;;22.70;96.80;;;23.15;nan;100056.41;5003372;28;20633;-68
2023/07/21 06:37:38;;;;;;;3.87;2.80;;;22.70;96.60;;;23.12;nan;100050.69;5000666;28;20657;-67
2023/07/21 06:40:08;;;;;;;2.60;2.50;;;22.70;96.70;;;23.11;nan;100049.03;4977838;28;20677;-67
2023/07/21 06:42:35;;;;;;;2.63;2.50;;;22.60;96.70;;;23.11;nan;100051.69;4996851;28;20645;-68
2023/07/21 06:45:03;;;;;;;2.23;2.13;;;22.70;96.50;;;23.11;nan;100052.53;4997070;28;21166;-68
2023/07/21 06:47:30;;;;;;;4.40;3.30;;;22.70;96.50;;;23.08;nan;100044.94;4995218;28;20630;-67
2023/07/21 06:49:59;;;;;;;3.13;2.50;;;22.70;96.50;;;23.06;nan;100046.19;4973562;28;21257;-67
2023/07/21 06:52:26;;;;;;;2.20;2.10;;;22.60;96.50;;;23.14;nan;100044.16;4998057;28;20660;-66
2023/07/21 06:54:53;;;;;;;2.30;2.20;;;22.70;96.50;;;23.16;nan;100051.91;4986466;28;20645;-67
2023/07/21 06:57:20;;;;;;;2.90;2.40;;;22.70;96.60;;;23.21;nan;100051.31;4993345;28;20625;-67
2023/07/21 06:59:47;;;;;;;2.20;2.10;;;22.80;96.80;;;23.28;nan;100057.44;4992845;28;20646;-67
2023/07/21 07:02:14;;;;;;;2.40;2.20;;;22.80;97.10;;;23.30;nan;100058.06;4991077;28;21050;-66
2023/07/21 07:04:41;;;;;;;2.43;1.90;;;22.90;96.70;;;23.25;nan;100050.69;4989404;28;20648;-68
2023/07/21 07:07:09;;;;;;;3.90;1.70;;;22.80;96.50;;;23.11;nan;100060.50;4991427;28;20638;-71
2023/07/21 07:09:36;;;;;;;4.47;1.80;;;22.70;96.20;;;22.96;nan;100053.75;4981764;28;20711;-68
2023/07/21 07:12:06;;;;;;;1.50;1.50;;;22.60;96.30;;;22.90;nan;100059.88;4989141;28;20669;-67
2023/07/21 07:14:33;;;;;;;1.53;1.50;;;22.50;96.60;;;22.79;nan;100061.31;4988373;28;20652;-69
2023/07/21 07:17:00;;;;;;;2.10;2.00;;;22.40;96.80;;;22.75;nan;100069.88;4991874;28;20614;-68
2023/07/21 07:19:28;;;;;;;1.90;1.80;;;22.30;97.00;;;22.67;nan;100065.59;4989567;28;21032;-68
2023/07/21 07:21:57;;;;;;;2.37;2.13;;;22.30;97.30;;;22.65;nan;100066.81;4985235;28;21209;-68
2023/07/21 07:24:24;;;;;;;1.97;1.87;;;22.20;97.50;;;22.66;nan;100066.59;4987644;28;21034;-66
2023/07/21 07:26:52;;;;;;;2.00;1.90;;;22.20;97.50;;;22.69;nan;100071.53;4993629;28;20646;-68
2023/07/21 07:29:20;;;;;;;1.90;1.83;;;22.30;97.60;;;22.71;nan;100060.69;4997795;28;20665;-68
2023/07/21 07:31:49;;;;;;;2.20;2.00;;;22.30;97.50;;;22.77;nan;100074.00;4988055;28;20658;-68
2023/07/21 07:34:17;;;;;;;2.17;2.00;;;22.30;97.50;;;22.81;nan;100072.56;4987579;28;20634;-69
2023/07/21 07:36:44;;;;;;;1.77;1.67;;;22.40;97.70;;;22.84;nan;100072.16;4990676;28;20611;-66
2023/07/21 07:39:12;;;;;;;1.63;1.53;;;22.40;97.60;;;22.80;nan;100076.25;4992529;28;20662;-70
2023/07/21 07:41:39;;;;;;;1.70;1.60;;;22.40;97.90;;;22.77;nan;100078.47;4991743;28;20638;-66
2023/07/21 07:44:08;;;;;;;1.97;1.87;;;22.40;98.20;;;22.73;nan;100086.06;4991875;28;20646;-67
2023/07/21 07:46:35;;;;;;;3.53;1.90;;;22.30;98.60;;;22.70;nan;100085.66;4994671;28;20646;-67
2023/07/21 07:49:03;;;;;;;2.03;1.90;;;22.30;99.10;;;22.64;nan;100078.44;4992641;28;20673;-67
2023/07/21 07:51:30;;;;;;;1.70;1.60;;;22.20;99.40;;;22.60;nan;100075.38;5001563;28;20656;-67
2023/07/21 07:53:58;;;;;;;1.57;1.50;;;22.20;99.30;;;22.70;nan;100078.47;4991185;28;20646;-67
2023/07/21 07:56:26;;;;;;;1.57;1.47;;;22.30;99.50;;;22.88;nan;100076.06;4991148;28;20645;-68
2023/07/21 07:58:55;;;;;;;1.57;1.47;;;22.40;99.70;;;23.15;nan;100082.19;4991875;28;20677;-67
2023/07/21 08:01:22;;;;;;;1.97;1.80;;;22.60;99.90;;;23.60;nan;100088.56;4996544;28;20672;-68
2023/07/21 08:03:49;;;;;;;2.57;2.37;;;23.00;99.60;;;24.34;nan;100083.66;5002563;28;20695;-67
2023/07/21 08:06:16;;;;;;;4.90;1.80;;;23.80;98.90;;;25.02;nan;100092.72;5005742;28;20659;-70
2023/07/21 08:08:43;;;;;;;1.40;1.40;;;24.40;97.90;;;25.42;nan;100086.06;4998568;28;20768;-66
2023/07/21 08:11:10;;;;;;;2.13;2.00;;;24.90;96.60;;;25.55;nan;100096.63;4987894;28;20662;-66
2023/07/21 08:13:39;;;;;;;2.30;2.10;;;25.10;95.90;;;25.52;nan;100094.38;4982039;28;20638;-69
2023/07/21 08:16:12;;;;;;;2.07;1.97;;;25.00;94.60;;;25.45;nan;100093.63;4990064;28;20638;-70
2023/07/21 08:18:39;;;;;;;1.60;1.50;;;25.00;93.80;;;25.33;nan;100090.00;4990504;28;20658;-67
2023/07/21 08:21:23;;;;;;;2.53;1.57;;;24.90;93.50;;;25.08;nan;100090.00;4985185;28;20638;-68
2023/07/21 08:23:52;;;;;;;1.70;1.60;;;24.70;92.80;;;24.90;nan;100089.91;4990517;28;20648;-67
2023/07/21 08:26:20;;;;;;;1.83;1.60;;;24.50;93.10;;;24.78;nan;100088.16;4990021;28;20646;-67
2023/07/21 08:28:47;;;;;;;1.80;1.70;;;24.30;93.10;;;24.72;nan;100086.31;4991418;28;20666;-67
2023/07/21 08:31:15;;;;;;;2.30;2.20;;;24.30;93.70;;;24.73;nan;100093.28;4997656;28;20661;-67
2023/07/21 08:33:42;;;;;;;1.57;1.47;;;24.30;94.10;;;24.84;nan;100084.63;4997455;28;20655;-68
2023/07/21 08:36:09;;;;;;;2.07;1.97;;;24.40;94.10;;;25.14;nan;100088.31;4993651;28;20626;-67
2023/07/21 08:38:36;;;;;;;2.07;1.97;;;24.60;93.90;;;25.64;nan;100081.94;4991176;28;21249;-67
2023/07/21 08:41:07;;;;;;;1.30;1.30;;;25.10;93.30;;;25.94;nan;100087.38;4983894;28;20638;-67
2023/07/21 08:43:35;;;;;;;2.00;1.80;;;25.40;92.10;;;26.65;nan;100090.22;4986060;28;20633;-67
2023/07/21 08:46:05;;;;;;;1.63;1.53;;;26.00;92.20;;;27.43;nan;100099.75;4996978;28;20650;-67
2023/07/21 08:48:34;;;;;;;1.37;1.30;;;26.90;90.50;;;27.67;nan;100098.69;4984849;28;20681;-67
2023/07/21 08:51:03;;;;;;;1.70;1.60;;;27.20;86.20;;;27.54;nan;100096.25;4988514;28;21045;-67
2023/07/21 08:53:30;;;;;;;1.30;1.30;;;27.10;82.50;;;27.21;nan;100090.63;4976062;28;20630;-68
2023/07/21 08:56:00;;;;;;;2.03;1.70;;;26.80;81.40;;;26.91;nan;100089.84;4991645;28;20635;-66
2023/07/21 08:58:28;;;;;;;1.37;1.37;;;26.50;81.40;;;26.62;nan;100088.00;4989134;28;20662;-67
2023/07/21 09:00:56;;;;;;;1.17;1.17;;;26.20;81.20;;;26.45;nan;100087.00;4988500;28;21437;-67
2023/07/21 09:03:29;;;;;;;2.07;0.97;;;26.00;81.40;;;26.36;nan;100091.84;4983384;28;21167;-66
2023/07/21 09:05:59;;;;;;;1.60;1.50;;;25.90;81.20;;;26.23;nan;100086.66;4995455;28;20639;-66
2023/07/21 09:08:30;;;;;;;2.60;1.37;;;25.80;81.10;;;26.10;nan;100089.50;4989017;28;20666;-68
2023/07/21 09:11:02;;;;;;;1.33;1.27;;;25.60;81.30;;;25.95;nan;100091.69;4976214;28;20693;-65
2023/07/21 09:13:31;;;;;;;1.30;1.20;;;25.50;81.00;;;25.78;nan;100087.97;4996458;28;20617;-67
2023/07/21 09:16:07;;;;;;;1.17;1.07;;;25.40;80.70;;;25.63;nan;100091.00;4987977;28;20650;-67
2023/07/21 09:18:44;;;;;;;1.07;1.00;;;25.20;80.40;;;25.52;nan;100083.69;4983291;28;20678;-66
2023/07/21 09:21:22;;;;;;;1.50;0.83;;;25.10;80.20;;;25.52;nan;100081.03;4982191;28;20630;-67
2023/07/21 09:23:50;;;;;;;0.87;0.87;;;25.10;80.10;;;25.59;nan;100091.66;4989676;28;20638;-67
2023/07/21 09:26:23;;;;;;;1.10;1.00;;;25.10;79.60;;;25.64;nan;100092.63;4988481;28;21224;-67
2023/07/21 09:28:51;;;;;;;1.17;1.07;;;25.10;80.00;;;25.68;nan;100085.81;4993044;28;21131;-68
2023/07/21 09:31:35;;;;;;;1.53;1.20;;;25.20;79.80;;;25.72;nan;100086.19;4989527;28;20696;-68
2023/07/21 09:34:09;;;;;;;0.97;0.97;;;25.20;79.80;;;25.89;nan;100095.25;4989846;28;21056;-67
2023/07/21 09:36:36;;;;;;;1.10;1.00;;;25.40;79.70;;;26.00;nan;100087.28;4986994;28;20638;-69
2023/07/21 09:39:04;;;;;;;0.70;0.70;;;25.50;78.40;;;26.10;nan;100082.28;4989945;28;20670;-67
2023/07/21 09:41:33;;;;;;;0.87;0.87;;;25.60;77.80;;;26.09;nan;100093.19;4992540;28;20646;-66
2023/07/21 09:44:00;;;;;;;1.00;1.00;;;25.60;76.20;;;26.11;nan;100089.25;4989514;28;20665;-67
2023/07/21 09:46:30;;;;;;;0.73;0.73;;;25.60;76.30;;;26.19;nan;100087.31;4995248;28;20641;-67
2023/07/21 09:48:58;;;;;;;1.00;1.00;;;25.70;76.20;;;26.34;nan;100085.91;5007979;28;20661;-67
2023/07/21 09:51:28;;;;;;;0.90;0.90;;;25.80;75.90;;;26.54;nan;100088.28;4991299;28;20673;-66
2023/07/21 09:54:02;;;;;;;1.00;1.00;;;26.00;75.30;;;26.78;nan;100087.38;4977070;28;20606;-67
2023/07/21 09:56:39;;;;;;;0.73;0.73;;;26.20;74.30;;;26.95;nan;100087.53;4970927;28;20638;-69
2023/07/21 09:59:08;;;;;;;0.80;0.80;;;26.40;72.80;;;27.00;nan;100088.50;4982856;28;20673;-67
2023/07/21 10:01:35;;;;;;;1.27;1.17;;;26.50;72.40;;;26.95;nan;100091.03;4975152;28;20657;-67
2023/07/21 10:04:03;;;;;;;0.90;0.90;;;26.40;71.90;;;26.91;nan;100084.50;4992904;28;21203;-67
2023/07/21 10:06:32;;;;;;;1.03;1.03;;;26.40;71.30;;;26.83;nan;100080.28;4976243;28;21252;-69
2023/07/21 10:09:00;;;;;;;3.90;0.83;;;26.40;71.30;;;26.75;nan;100079.78;4998127;28;20664;-68
2023/07/21 10:11:27;;;;;;;1.30;1.20;;;26.30;71.00;;;26.84;nan;100079.25;4984618;28;21244;-70
2023/07/21 10:13:54;;;;;;;1.63;1.53;;;26.30;71.10;;;26.99;nan;100080.66;4975142;28;20662;-67
2023/07/21 10:16:22;;;;;;;1.17;1.17;;;26.50;71.00;;;27.13;nan;100082.09;5008680;28;20622;-68
2023/07/21 10:19:11;;;;;;;1.03;1.03;;;26.60;70.10;;;27.30;nan;100075.03;5012240;28;20649;-69
2023/07/21 10:21:54;;;;;;;1.30;1.20;;;26.80;69.90;;;27.45;nan;100084.25;4986712;28;20626;-66
2023/07/21 10:24:25;;;;;;;0.87;0.87;;;26.90;69.40;;;27.50;nan;100083.56;4977930;28;20629;-68
2023/07/21 10:27:01;;;;;;;1.37;0.90;;;27.00;69.30;;;27.51;nan;100080.63;4992561;28;20734;-67
2023/07/21 10:29:28;;;;;;;1.20;1.20;;;27.00;69.20;;;27.56;nan;100083.44;4991534;28;21039;-65
2023/07/21 10:31:57;;;;;;;0.97;0.97;;;27.00;69.20;;;27.61;nan;100088.91;4993810;28;20657;-70